Time;durP1;ratioP1;P1;durP2;ratioP2;P2;SDS_P1;SDS_P2;PMS_P1;PMS_P2;Temp;Humidity;BMP_temperature;BMP_pressure;BME280_temperature;BME280_humidity;BME280_pressure;Samples;Min_cycle;Max_cycle;Signal;HPM_P1;HPM_P2
2023/06/02 00:00:38;;;;;;;8.53;5.33;;;12.90;33.30;;;;;;5094746;28;20210;-71
2023/06/02 00:03:08;;;;;;;6.17;5.23;;;13.00;31.80;;;;;;5094630;28;20172;-72
2023/06/02 00:05:34;;;;;;;6.07;5.30;;;12.90;31.20;;;;;;5094629;28;20180;-72
2023/06/02 00:08:02;;;;;;;6.20;5.63;;;12.80;35.20;;;;;;5093724;28;20698;-71
2023/06/02 00:10:28;;;;;;;5.80;5.30;;;12.70;39.40;;;;;;5094021;28;20615;-71
2023/06/02 00:12:54;;;;;;;5.87;4.70;;;12.90;37.80;;;;;;5094645;28;20179;-72
2023/06/02 00:15:19;;;;;;;5.40;4.87;;;12.80;37.00;;;;;;5094452;28;20175;-72
2023/06/02 00:17:45;;;;;;;6.20;5.00;;;12.70;40.70;;;;;;5094371;28;20172;-72
2023/06/02 00:20:11;;;;;;;5.50;5.00;;;12.70;41.70;;;;;;5094342;28;20627;-72
2023/06/02 00:22:41;;;;;;;6.77;5.70;;;12.70;40.50;;;;;;5093843;28;20254;-72
2023/06/02 00:25:07;;;;;;;5.80;5.30;;;12.70;42.90;;;;;;5094293;28;20168;-72
2023/06/02 00:27:33;;;;;;;5.90;5.13;;;12.70;44.30;;;;;;5094103;28;20207;-71
2023/06/02 00:29:59;;;;;;;6.37;5.33;;;12.80;43.50;;;;;;5094087;28;20168;-72
2023/06/02 00:32:24;;;;;;;6.83;5.00;;;12.80;44.00;;;;;;5094140;28;20180;-73
2023/06/02 00:34:50;;;;;;;5.60;4.87;;;12.80;43.40;;;;;;5093814;28;20223;-72
2023/06/02 00:37:16;;;;;;;5.30;4.80;;;12.80;44.10;;;;;;5093673;28;20538;-71
2023/06/02 00:39:41;;;;;;;5.10;4.70;;;12.90;43.70;;;;;;5093858;28;20176;-73
2023/06/02 00:42:09;;;;;;;5.60;5.10;;;12.90;37.90;;;;;;5093988;28;20180;-72
2023/06/02 00:44:35;;;;;;;6.33;5.33;;;12.90;41.80;;;;;;5093884;28;20176;-73
2023/06/02 00:47:00;;;;;;;8.70;4.67;;;12.90;40.80;;;;;;5093862;28;20203;-71
2023/06/02 00:49:26;;;;;;;7.93;5.00;;;12.80;40.60;;;;;;5093366;28;20610;-72
2023/06/02 00:51:53;;;;;;;6.70;5.20;;;12.80;42.90;;;;;;5093244;28;20180;-72
2023/06/02 00:54:19;;;;;;;6.23;5.30;;;12.80;44.60;;;;;;5093642;28;20229;-72
2023/06/02 00:56:45;;;;;;;8.50;4.63;;;12.80;43.90;;;;;;5093582;28;20192;-72
2023/06/02 00:59:11;;;;;;;5.63;4.50;;;13.00;41.90;;;;;;5093729;28;20170;-72
2023/06/02 01:01:38;;;;;;;9.70;4.80;;;13.10;39.00;;;;;;5093695;28;20192;-72
2023/06/02 01:04:05;;;;;;;6.43;3.83;;;13.20;34.00;;;;;;5093739;28;20233;-71
2023/06/02 01:06:36;;;;;;;8.37;4.10;;;13.30;31.00;;;;;;5093081;28;20325;-72
2023/06/02 01:09:08;;;;;;;5.13;4.13;;;13.30;23.50;;;;;;5093309;28;20542;-72
2023/06/02 01:11:34;;;;;;;7.70;4.47;;;13.30;24.20;;;;;;5093544;28;20684;-72
2023/06/02 01:14:00;;;;;;;7.97;4.13;;;13.20;18.80;;;;;;5093273;28;20651;-72
2023/06/02 01:16:29;;;;;;;9.50;4.90;;;13.00;16.80;;;;;;5093189;28;20194;-72
2023/06/02 01:18:59;;;;;;;9.10;4.43;;;12.80;16.80;;;;;;5093215;28;20188;-71
2023/06/02 01:21:28;;;;;;;10.70;4.27;;;12.70;19.50;;;;;;5092617;28;20614;-72
2023/06/02 01:23:57;;;;;;;7.90;4.20;;;12.60;19.70;;;;;;5093451;28;20168;-71
2023/06/02 01:26:28;;;;;;;7.03;5.40;;;12.50;18.00;;;;;;5093021;28;20646;-72
2023/06/02 01:28:54;;;;;;;8.93;5.40;;;12.50;22.40;;;;;;5093176;28;20267;-71
2023/06/02 01:31:27;;;;;;;8.13;5.07;;;12.40;24.70;;;;;;5093133;28;20203;-71
2023/06/02 01:34:10;;;;;;;7.57;5.27;;;12.50;27.00;;;;;;5092912;28;20253;-71
2023/06/02 01:36:38;;;;;;;9.43;5.70;;;12.50;26.20;;;;;;5092937;28;20184;-72
2023/06/02 01:39:07;;;;;;;9.23;5.20;;;12.40;25.50;;;;;;5093141;28;20172;-72
2023/06/02 01:41:37;;;;;;;13.03;5.17;;;12.40;26.20;;;;;;5093097;28;20175;-71
2023/06/02 01:44:03;;;;;;;6.73;4.37;;;12.40;29.50;;;;;;5093208;28;20623;-73
2023/06/02 01:46:29;;;;;;;8.73;4.47;;;12.40;26.20;;;;;;5093000;28;20723;-70
2023/06/02 01:48:55;;;;;;;9.57;5.07;;;12.30;22.90;;;;;;5091430;28;20180;-71
2023/06/02 01:51:21;;;;;;;9.83;4.63;;;12.30;24.10;;;;;;5092984;28;20164;-72
2023/06/02 01:53:46;;;;;;;12.27;4.63;;;12.30;22.90;;;;;;5093060;28;20209;-71
2023/06/02 01:56:12;;;;;;;10.60;4.90;;;12.20;25.10;;;;;;5093011;28;20528;-72
2023/06/02 01:58:38;;;;;;;9.67;4.70;;;12.20;25.30;;;;;;5092912;28;20203;-71
2023/06/02 02:01:03;;;;;;;16.30;5.40;;;12.30;26.70;;;;;;5093070;28;20571;-71
2023/06/02 02:03:30;;;;;;;12.80;5.07;;;12.20;26.80;;;;;;5092504;28;20179;-72
2023/06/02 02:05:56;;;;;;;11.03;5.23;;;12.20;28.60;;;;;;5092941;28;20247;-72
2023/06/02 02:08:22;;;;;;;10.33;5.40;;;12.20;28.20;;;;;;5092882;28;20195;-73
2023/06/02 02:10:47;;;;;;;12.73;5.37;;;12.20;27.80;;;;;;5092807;28;20707;-72
2023/06/02 02:13:13;;;;;;;13.10;5.40;;;12.10;29.10;;;;;;5092890;28;20559;-71
2023/06/02 02:15:39;;;;;;;9.33;5.07;;;12.10;29.00;;;;;;5092943;28;20176;-71
2023/06/02 02:18:05;;;;;;;11.70;5.40;;;12.20;28.70;;;;;;5092524;28;20653;-71
2023/06/02 02:20:31;;;;;;;8.37;4.90;;;12.10;29.10;;;;;;5092839;28;20174;-72
2023/06/02 02:22:56;;;;;;;9.33;5.30;;;12.10;29.60;;;;;;5092688;28;20171;-71
2023/06/02 02:25:22;;;;;;;11.80;5.10;;;12.00;28.90;;;;;;5092707;28;20204;-72
2023/06/02 02:27:48;;;;;;;9.90;4.77;;;12.10;30.50;;;;;;5092612;28;20218;-72
2023/06/02 02:30:14;;;;;;;9.27;4.80;;;12.10;30.60;;;;;;5092678;28;20168;-72
2023/06/02 02:32:43;;;;;;;8.23;4.93;;;12.10;32.20;;;;;;5094070;28;20626;-72
2023/06/02 02:35:09;;;;;;;12.23;5.23;;;12.10;29.90;;;;;;5096541;28;20179;-72
2023/06/02 02:37:37;;;;;;;9.23;4.97;;;12.20;29.70;;;;;;5096402;28;20176;-70
2023/06/02 02:40:05;;;;;;;9.53;4.43;;;12.10;29.50;;;;;;5096369;28;20457;-71
2023/06/02 02:42:33;;;;;;;8.70;4.33;;;12.00;30.80;;;;;;5096083;28;20164;-71
2023/06/02 02:45:00;;;;;;;9.07;4.73;;;12.00;32.20;;;;;;5096300;28;20205;-71
2023/06/02 02:47:26;;;;;;;10.43;4.63;;;12.00;31.50;;;;;;5095613;28;20252;-71
2023/06/02 02:49:51;;;;;;;11.87;4.87;;;12.00;30.60;;;;;;5096012;28;20168;-71
2023/06/02 02:52:17;;;;;;;9.77;5.27;;;12.00;29.60;;;;;;5096038;28;20523;-71
2023/06/02 02:54:42;;;;;;;7.80;5.60;;;12.00;30.60;;;;;;5096194;28;20168;-71
2023/06/02 02:57:08;;;;;;;7.50;5.07;;;12.00;30.90;;;;;;5095680;28;20195;-72
2023/06/02 02:59:35;;;;;;;10.13;5.77;;;12.00;30.50;;;;;;5095448;28;20183;-71
2023/06/02 03:02:02;;;;;;;9.73;5.60;;;11.90;31.80;;;;;;5095427;28;20175;-73
2023/06/02 03:04:27;;;;;;;8.47;4.10;;;11.90;26.00;;;;;;5095777;28;20245;-72
2023/06/02 03:06:54;;;;;;;7.80;4.37;;;11.80;18.80;;;;;;5095384;28;20651;-71
2023/06/02 03:09:20;;;;;;;13.43;4.67;;;11.80;18.20;;;;;;5095775;28;20237;-71
2023/06/02 03:11:46;;;;;;;13.27;4.50;;;11.70;17.70;;;;;;5095763;28;20167;-73
2023/06/02 03:14:12;;;;;;;10.23;4.27;;;11.80;18.60;;;;;;5095538;28;20561;-73
2023/06/02 03:16:41;;;;;;;8.47;4.30;;;11.80;15.60;;;;;;5095073;28;20262;-73
2023/06/02 03:19:14;;;;;;;12.00;4.07;;;11.80;12.60;;;;;;5095492;28;20172;-71
2023/06/02 03:21:44;;;;;;;8.97;3.90;;;11.70;11.80;;;;;;5095598;28;20180;-72
2023/06/02 03:24:15;;;;;;;5.07;3.97;;;11.60;11.80;;;;;;5095756;28;20243;-72
2023/06/02 03:26:41;;;;;;;9.93;3.93;;;11.60;12.50;;;;;;5095545;28;20203;-72
2023/06/02 03:29:09;;;;;;;9.07;3.90;;;11.60;13.00;;;;;;5095385;28;20191;-73
2023/06/02 03:31:35;;;;;;;11.50;4.37;;;11.60;11.60;;;;;;5094861;28;20176;-72
2023/06/02 03:34:05;;;;;;;11.57;4.53;;;11.70;11.40;;;;;;5094817;28;20220;-71
2023/06/02 03:36:38;;;;;;;9.20;4.30;;;11.70;11.00;;;;;;5094791;28;20172;-71
2023/06/02 03:39:05;;;;;;;9.20;4.27;;;11.70;8.40;;;;;;5095116;28;20164;-72
2023/06/02 03:41:31;;;;;;;9.47;3.73;;;11.60;11.50;;;;;;5093432;28;20172;-71
2023/06/02 03:43:57;;;;;;;7.53;4.53;;;11.70;10.50;;;;;;5095122;28;20243;-72
2023/06/02 03:46:22;;;;;;;10.40;4.50;;;11.70;10.80;;;;;;5094296;28;20283;-72
2023/06/02 03:48:48;;;;;;;14.63;5.10;;;11.70;9.40;;;;;;5094767;28;20662;-71
2023/06/02 03:51:13;;;;;;;19.53;4.90;;;11.80;8.70;;;;;;5094803;28;20160;-71
2023/06/02 03:53:39;;;;;;;10.17;4.30;;;11.80;8.30;;;;;;5094491;28;20164;-71
2023/06/02 03:56:05;;;;;;;11.60;4.80;;;11.80;6.70;;;;;;5094470;28;20590;-71
2023/06/02 03:58:31;;;;;;;12.20;4.63;;;11.70;7.20;;;;;;5095567;28;20183;-71
2023/06/02 04:00:58;;;;;;;16.17;4.90;;;11.70;7.00;;;;;;5094191;28;20172;-71
2023/06/02 04:03:23;;;;;;;10.33;4.67;;;11.60;9.60;;;;;;5094368;28;20210;-72
2023/06/02 04:05:49;;;;;;;11.30;4.50;;;11.60;8.90;;;;;;5094103;28;20203;-71
2023/06/02 04:08:16;;;;;;;8.30;4.17;;;11.60;11.50;;;;;;5094469;28;20172;-71
2023/06/02 04:10:45;;;;;;;9.57;4.43;;;11.60;10.70;;;;;;5094012;28;20209;-71
2023/06/02 04:13:11;;;;;;;12.23;4.97;;;11.60;11.90;;;;;;5094501;28;20167;-72
2023/06/02 04:15:37;;;;;;;9.07;4.87;;;11.60;13.20;;;;;;5093444;28;20661;-71
2023/06/02 04:18:03;;;;;;;10.83;4.80;;;11.70;11.80;;;;;;5094018;28;20190;-71
2023/06/02 04:20:29;;;;;;;14.80;4.90;;;11.70;12.30;;;;;;5094224;28;20171;-72
2023/06/02 04:22:54;;;;;;;12.40;5.00;;;11.70;12.20;;;;;;5094046;28;20568;-71
2023/06/02 04:25:20;;;;;;;10.50;5.40;;;11.70;12.50;;;;;;5094090;28;20183;-72
2023/06/02 04:27:46;;;;;;;13.70;4.73;;;11.80;13.60;;;;;;5093712;28;20646;-72
2023/06/02 04:30:11;;;;;;;11.07;4.73;;;11.80;13.00;;;;;;5093239;28;20164;-72
2023/06/02 04:32:37;;;;;;;8.47;4.43;;;11.80;10.80;;;;;;5093540;28;20218;-71
2023/06/02 04:35:03;;;;;;;8.73;4.70;;;11.80;11.00;;;;;;5093545;28;20184;-71
2023/06/02 04:37:29;;;;;;;16.17;5.30;;;11.90;10.80;;;;;;5092387;28;20219;-71
2023/06/02 04:39:55;;;;;;;13.10;4.80;;;11.90;12.60;;;;;;5093953;28;20198;-72
2023/06/02 04:42:21;;;;;;;12.87;4.83;;;11.90;9.40;;;;;;5092479;28;20592;-72
2023/06/02 04:44:48;;;;;;;13.87;4.67;;;11.90;11.60;;;;;;5093098;28;20662;-72
2023/06/02 04:47:14;;;;;;;10.17;5.10;;;11.90;12.30;;;;;;5093621;28;20211;-72
2023/06/02 04:49:40;;;;;;;12.80;5.40;;;11.80;14.80;;;;;;5093264;28;20168;-71
2023/06/02 04:52:09;;;;;;;11.80;5.20;;;11.90;15.70;;;;;;5093009;28;20233;-71
2023/06/02 04:54:35;;;;;;;8.77;4.83;;;11.90;10.60;;;;;;5092797;28;20176;-71
2023/06/02 04:57:01;;;;;;;12.27;4.87;;;11.90;10.20;;;;;;5091690;28;20655;-73
2023/06/02 04:59:27;;;;;;;6.87;4.80;;;11.90;13.00;;;;;;5092987;28;20179;-71
2023/06/02 05:01:53;;;;;;;12.50;5.00;;;12.00;10.80;;;;;;5092587;28;20175;-72
2023/06/02 05:04:21;;;;;;;13.40;5.50;;;11.90;13.60;;;;;;5092831;28;20179;-71
2023/06/02 05:06:47;;;;;;;12.20;5.23;;;11.90;11.50;;;;;;5092701;28;20232;-71
2023/06/02 05:09:13;;;;;;;11.93;5.60;;;11.90;14.20;;;;;;5093111;28;20262;-72
2023/06/02 05:11:39;;;;;;;14.97;5.67;;;12.00;13.60;;;;;;5092173;28;20264;-73
2023/06/02 05:14:05;;;;;;;13.03;6.43;;;12.00;14.80;;;;;;5092954;28;20164;-73
2023/06/02 05:16:31;;;;;;;12.67;5.43;;;12.00;14.90;;;;;;5092680;28;20175;-71
2023/06/02 05:18:57;;;;;;;15.83;5.47;;;11.90;16.30;;;;;;5091399;28;20202;-73
2023/06/02 05:21:23;;;;;;;11.47;5.40;;;11.90;18.10;;;;;;5092891;28;20222;-73
2023/06/02 05:23:49;;;;;;;12.67;6.20;;;12.00;17.80;;;;;;5091020;28;20180;-71
2023/06/02 05:26:15;;;;;;;14.10;5.80;;;12.00;18.20;;;;;;5091997;28;20211;-72
2023/06/02 05:28:40;;;;;;;13.13;5.57;;;12.10;15.40;;;;;;5091979;28;20187;-73
2023/06/02 05:31:06;;;;;;;11.10;5.43;;;12.10;12.80;;;;;;5091375;28;20172;-73
2023/06/02 05:33:32;;;;;;;17.90;5.63;;;12.20;15.10;;;;;;5092298;28;20211;-73
2023/06/02 05:35:57;;;;;;;14.63;5.60;;;12.10;16.10;;;;;;5092197;28;20167;-72
2023/06/02 05:38:23;;;;;;;11.87;6.20;;;12.00;18.20;;;;;;5092505;28;20171;-72
2023/06/02 05:40:48;;;;;;;11.07;5.80;;;12.00;19.90;;;;;;5090911;28;20623;-73
2023/06/02 05:43:14;;;;;;;18.33;6.13;;;12.00;20.90;;;;;;5091957;28;20180;-73
2023/06/02 05:45:40;;;;;;;11.17;6.10;;;12.10;21.10;;;;;;5091981;28;20176;-73
2023/06/02 05:48:05;;;;;;;16.13;6.03;;;12.20;20.40;;;;;;5092019;28;20258;-72
2023/06/02 05:50:31;;;;;;;19.00;6.20;;;12.10;19.70;;;;;;5091199;28;20254;-73
2023/06/02 05:52:57;;;;;;;10.77;5.80;;;12.10;18.70;;;;;;5092163;28;20168;-73
2023/06/02 05:55:22;;;;;;;16.07;6.73;;;12.10;20.40;;;;;;5091549;28;20168;-71
2023/06/02 05:57:48;;;;;;;12.03;7.10;;;12.10;22.70;;;;;;5091754;28;20711;-72
2023/06/02 06:00:15;;;;;;;10.57;7.07;;;12.20;18.80;;;;;;5092237;28;20173;-72
2023/06/02 06:02:40;;;;;;;11.57;6.77;;;12.20;16.30;;;;;;5092194;28;20176;-73
2023/06/02 06:05:06;;;;;;;9.10;6.87;;;12.20;18.30;;;;;;5091160;28;20176;-73
2023/06/02 06:07:32;;;;;;;18.30;8.83;;;12.10;17.40;;;;;;5093677;28;20212;-72
2023/06/02 06:09:58;;;;;;;18.73;8.23;;;12.10;20.50;;;;;;5094843;28;20556;-72
2023/06/02 06:12:23;;;;;;;14.20;6.90;;;12.10;19.70;;;;;;5095793;28;20264;-72
2023/06/02 06:14:49;;;;;;;15.80;6.90;;;12.20;13.10;;;;;;5095790;28;20195;-72
2023/06/02 06:17:14;;;;;;;16.90;7.53;;;12.10;15.20;;;;;;5095462;28;20184;-72
2023/06/02 06:19:40;;;;;;;18.07;7.80;;;12.10;14.30;;;;;;5095850;28;20601;-71
2023/06/02 06:22:06;;;;;;;15.63;7.60;;;12.20;11.90;;;;;;5095178;28;20172;-73
2023/06/02 06:24:31;;;;;;;10.30;6.97;;;12.20;10.10;;;;;;5095577;28;20168;-71
2023/06/02 06:26:57;;;;;;;14.77;6.40;;;12.10;9.20;;;;;;5095427;28;20211;-73
2023/06/02 06:29:23;;;;;;;14.20;6.37;;;12.00;10.70;;;;;;5095630;28;20334;-72
2023/06/02 06:31:49;;;;;;;14.17;6.63;;;12.00;13.90;;;;;;5094403;28;20643;-72
2023/06/02 06:34:15;;;;;;;12.33;6.00;;;12.10;13.60;;;;;;5095185;28;20333;-73
2023/06/02 06:36:40;;;;;;;19.17;6.80;;;12.10;10.10;;;;;;5095226;28;20203;-73
2023/06/02 06:39:06;;;;;;;15.93;6.33;;;12.20;7.90;;;;;;5094640;28;20248;-71
2023/06/02 06:41:32;;;;;;;15.77;5.80;;;12.30;8.90;;;;;;5095833;28;20232;-73
2023/06/02 06:43:57;;;;;;;10.53;5.80;;;12.30;4.40;;;;;;5094891;28;20180;-72
2023/06/02 06:46:23;;;;;;;16.33;6.70;;;12.30;3.60;;;;;;5093329;28;20191;-73
2023/06/02 06:48:48;;;;;;;19.50;6.13;;;12.30;5.40;;;;;;5095029;28;20168;-73
2023/06/02 06:51:14;;;;;;;10.17;5.83;;;12.40;3.80;;;;;;5095068;28;20692;-71
2023/06/02 06:53:40;;;;;;;9.77;5.97;;;12.40;1.00;;;;;;5088602;28;20180;-71
2023/06/02 06:56:06;;;;;;;14.67;6.27;;;12.40;1.10;;;;;;5076654;28;20234;-70
2023/06/02 06:58:31;;;;;;;14.30;6.63;;;12.40;3.00;;;;;;5092242;28;20201;-71
2023/06/02 07:00:58;;;;;;;10.23;6.77;;;12.30;6.10;;;;;;5074577;28;20211;-71
2023/06/02 07:03:23;;;;;;;10.57;6.27;;;12.40;4.30;;;;;;5075346;28;20199;-73
2023/06/02 07:05:50;;;;;;;12.97;7.13;;;12.60;1.00;;;;;;5073898;28;20223;-72
2023/06/02 07:08:15;;;;;;;16.73;7.63;;;12.60;1.00;;;;;;5073561;28;20181;-73
2023/06/02 07:10:41;;;;;;;14.77;6.73;;;12.50;1.00;;;;;;5074582;28;20255;-74
2023/06/02 07:13:06;;;;;;;9.77;6.77;;;12.50;1.00;;;;;;5072327;28;20306;-73
2023/06/02 07:15:32;;;;;;;16.07;7.20;;;12.60;1.00;;;;;;5074527;28;20168;-73
2023/06/02 07:17:58;;;;;;;15.97;7.23;;;12.70;1.00;;;;;;5074201;28;20271;-72
2023/06/02 07:20:24;;;;;;;9.73;6.30;;;12.70;1.00;;;;;;5074478;28;20254;-73
2023/06/02 07:22:49;;;;;;;13.37;5.53;;;12.60;1.00;;;;;;5074329;28;20666;-72
2023/06/02 07:25:15;;;;;;;12.93;5.90;;;12.70;1.00;;;;;;5074297;28;20194;-74
2023/06/02 07:27:41;;;;;;;9.70;5.47;;;12.60;1.00;;;;;;5073969;28;20204;-73
2023/06/02 07:30:07;;;;;;;12.23;4.30;;;12.60;1.00;;;;;;5074547;28;20647;-72
2023/06/02 07:32:33;;;;;;;11.27;5.23;;;12.60;1.00;;;;;;5074450;28;20165;-72
2023/06/02 07:34:58;;;;;;;12.97;5.63;;;12.80;1.00;;;;;;5074491;28;20226;-72
2023/06/02 07:37:24;;;;;;;12.53;5.60;;;13.30;1.00;;;;;;5074168;28;20173;-72
2023/06/02 07:39:50;;;;;;;9.83;4.90;;;13.60;1.00;;;;;;5074256;28;20181;-73
2023/06/02 07:42:16;;;;;;;8.10;4.77;;;13.80;1.00;;;;;;5072717;28;20173;-74
2023/06/02 07:44:41;;;;;;;10.53;4.87;;;13.70;1.00;;;;;;5074077;28;20573;-72
2023/06/02 07:47:07;;;;;;;13.07;5.27;;;13.70;1.00;;;;;;5073780;28;20334;-74
2023/06/02 07:49:36;;;;;;;9.73;5.03;;;13.70;1.00;;;;;;5074443;28;20172;-74
2023/06/02 07:52:01;;;;;;;9.33;4.90;;;13.60;1.00;;;;;;5073480;28;20217;-73
2023/06/02 07:54:27;;;;;;;8.13;4.93;;;13.90;1.00;;;;;;5073909;28;20226;-73
2023/06/02 07:56:52;;;;;;;9.13;4.60;;;14.00;1.00;;;;;;5074081;28;20188;-73
2023/06/02 07:59:18;;;;;;;18.40;4.83;;;14.00;1.00;;;;;;5074132;28;20176;-73
2023/06/02 08:01:45;;;;;;;9.70;4.50;;;14.30;1.00;;;;;;5073506;28;20176;-73
2023/06/02 08:04:11;;;;;;;10.77;4.60;;;14.40;1.00;;;;;;5074169;28;20181;-71
2023/06/02 08:06:36;;;;;;;12.73;5.40;;;14.40;1.00;;;;;;5073378;28;20227;-72
2023/06/02 08:09:03;;;;;;;12.10;5.40;;;14.30;1.00;;;;;;5073565;28;20600;-74
2023/06/02 08:11:28;;;;;;;12.13;4.60;;;14.50;1.00;;;;;;5073759;28;20238;-71
2023/06/02 08:13:54;;;;;;;7.63;4.27;;;14.30;1.00;;;;;;5073429;28;20164;-72
2023/06/02 08:16:20;;;;;;;14.17;5.03;;;14.10;1.00;;;;;;5073554;28;20179;-72
2023/06/02 08:18:46;;;;;;;13.30;4.97;;;14.10;1.00;;;;;;5073580;28;20175;-72
2023/06/02 08:21:12;;;;;;;11.30;4.90;;;13.90;1.00;;;;;;5073234;28;20271;-72
2023/06/02 08:23:38;;;;;;;10.67;4.70;;;13.60;1.00;;;;;;5073590;28;20176;-73
2023/06/02 08:26:03;;;;;;;8.20;4.60;;;13.60;1.00;;;;;;5073195;28;20225;-72
2023/06/02 08:28:33;;;;;;;11.73;5.00;;;13.40;1.00;;;;;;5073124;28;20255;-72
2023/06/02 08:31:00;;;;;;;9.43;5.03;;;13.50;1.00;;;;;;5072953;28;20188;-72
2023/06/02 08:33:26;;;;;;;12.30;5.20;;;13.50;1.00;;;;;;5071809;28;20655;-72
2023/06/02 08:35:52;;;;;;;10.33;4.80;;;13.90;1.00;;;;;;5072425;28;20595;-73
2023/06/02 08:38:21;;;;;;;9.23;4.80;;;13.80;1.00;;;;;;5073554;28;20168;-72
2023/06/02 08:40:47;;;;;;;13.70;4.87;;;13.80;1.00;;;;;;5072874;28;20168;-72
2023/06/02 08:43:14;;;;;;;9.90;3.97;;;14.30;1.00;;;;;;5073388;28;20184;-73
2023/06/02 08:45:46;;;;;;;9.67;3.63;;;14.70;1.00;;;;;;5072978;28;20172;-72
2023/06/02 08:48:17;;;;;;;7.43;3.83;;;15.60;1.00;;;;;;5073467;28;20191;-72
2023/06/02 08:50:47;;;;;;;4.53;3.00;;;16.70;99.90;;;;;;5072827;28;20196;-72
2023/06/02 08:53:18;;;;;;;6.47;3.97;;;16.90;28.20;;;;;;5072938;28;20180;-72
2023/06/02 08:55:48;;;;;;;9.93;3.80;;;17.10;1.00;;;;;;5072740;28;20164;-74
2023/06/02 08:58:13;;;;;;;7.27;3.10;;;17.40;99.90;;;;;;5072361;28;20197;-73
2023/06/02 09:00:39;;;;;;;10.17;3.90;;;17.90;99.90;;;;;;5072344;28;20642;-73
2023/06/02 09:03:05;;;;;;;10.30;3.80;;;17.50;99.90;;;;;;5071708;28;20212;-72
2023/06/02 09:05:36;;;;;;;8.55;4.32;;;18.00;1.00;;;;;;5072182;28;20180;-73
2023/06/02 09:08:09;;;;;;;13.02;4.07;;;18.50;1.00;;;;;;5072821;28;20306;-73
2023/06/02 09:10:40;;;;;;;9.75;3.55;;;19.00;99.90;;;;;;5072832;28;20175;-74
2023/06/02 09:13:10;;;;;;;4.13;2.90;;;19.80;1.00;;;;;;5072455;28;20288;-74
2023/06/02 09:15:53;;;;;;;7.43;3.45;;;18.70;1.00;;;;;;5072553;28;20160;-74
2023/06/02 09:18:19;;;;;;;5.05;3.10;;;17.80;99.90;;;;;;5072900;28;20169;-74
2023/06/02 09:20:48;;;;;;;7.45;3.50;;;18.30;99.90;;;;;;5072283;28;20177;-74
2023/06/02 09:23:14;;;;;;;6.90;4.20;;;18.50;99.90;;;;;;5073276;28;20195;-74
2023/06/02 09:25:40;;;;;;;6.80;3.33;;;19.20;1.00;;;;;;5072481;28;20631;-74
2023/06/02 09:28:07;;;;;;;7.55;3.30;;;20.30;1.00;;;;;;5072518;28;20208;-73
2023/06/02 09:30:33;;;;;;;7.35;3.63;;;20.90;99.90;;;;;;5072725;28;20165;-74
2023/06/02 09:33:12;;;;;;;7.13;3.58;;;20.30;99.90;;;;;;5071952;28;20295;-74
2023/06/02 09:35:40;;;;;;;6.88;4.80;;;19.80;1.00;;;;;;5071028;28;20615;-74
2023/06/02 09:38:09;;;;;;;7.75;4.43;;;19.90;1.00;;;;;;5072481;28;20609;-75
2023/06/02 09:40:36;;;;;;;11.20;4.30;;;20.40;1.00;;;;;;5072180;28;20188;-74
2023/06/02 09:43:05;;;;;;;10.20;4.00;;;19.80;1.00;;;;;;5076399;28;20164;-74
2023/06/02 09:45:32;;;;;;;15.85;4.80;;;19.30;1.00;;;;;;5076857;28;20255;-75
2023/06/02 09:47:58;;;;;;;9.38;5.10;;;20.30;1.00;;;;;;5075715;28;20207;-75
2023/06/02 09:50:36;;;;;;;8.30;4.20;;;19.40;99.90;;;;;;5076705;28;20258;-73
2023/06/02 09:53:08;;;;;;;8.88;4.95;;;18.10;1.00;;;;;;5076183;28;20321;-74
2023/06/02 09:55:36;;;;;;;7.87;4.30;;;17.30;1.00;;;;;;5076060;28;20177;-74
2023/06/02 09:58:06;;;;;;;14.07;5.13;;;16.90;1.00;;;;;;5076266;28;20668;-73
2023/06/02 10:00:32;;;;;;;10.00;5.13;;;17.40;1.00;;;;;;5076484;28;20214;-76
2023/06/02 10:02:59;;;;;;;9.07;5.33;;;17.30;99.90;;;;;;5075853;28;20204;-75
2023/06/02 10:05:25;;;;;;;9.90;5.15;;;17.60;97.00;;;;;;5076171;28;20173;-74
2023/06/02 10:08:35;;;;;;;7.05;4.72;;;17.60;99.90;;;;;;5075619;28;20211;-74
2023/06/02 10:11:03;;;;;;;10.18;5.00;;;17.90;99.90;;;;;;5071652;28;20306;-73
2023/06/02 10:13:37;;;;;;;11.18;5.07;;;18.70;1.00;;;;;;5076015;28;20187;-73
2023/06/02 10:16:40;;;;;;;12.02;4.80;;;18.50;1.00;;;;;;5075787;28;20164;-72
2023/06/02 10:19:27;;;;;;;8.80;5.20;;;18.40;1.00;;;;;;5079270;28;20177;-73
2023/06/02 10:22:09;;;;;;;11.48;5.45;;;18.60;99.90;;;;;;5078931;28;20172;-73
2023/06/02 10:24:51;;;;;;;10.32;5.20;;;18.90;1.00;;;;;;5074912;28;20183;-73
2023/06/02 10:27:25;;;;;;;7.03;4.28;;;18.30;1.00;;;;;;5094896;28;20231;-71
2023/06/02 10:29:53;;;;;;;10.07;4.10;;;18.20;1.00;;;;;;5095568;28;20217;-70
2023/06/02 10:32:24;;;;;;;14.02;4.80;;;18.30;99.90;;;;;;5095129;28;20174;-70
2023/06/02 10:34:55;;;;;;;10.07;4.82;;;18.60;1.00;;;;;;5095158;28;20273;-71
2023/06/02 10:37:22;;;;;;;10.15;4.45;;;18.10;99.90;;;;;;5095130;28;20164;-72
2023/06/02 10:39:51;;;;;;;8.85;4.53;;;18.50;1.00;;;;;;5094166;28;20192;-72
2023/06/02 10:42:17;;;;;;;11.57;4.97;;;19.20;1.00;;;;;;5095647;28;20157;-72
2023/06/02 10:44:43;;;;;;;14.27;4.82;;;19.10;1.00;;;;;;5095905;28;20522;-71
2023/06/02 10:47:18;;;;;;;11.73;4.35;;;19.30;99.90;;;;;;5094776;28;20218;-71
2023/06/02 10:49:52;;;;;;;9.52;4.72;;;19.10;1.00;;;;;;5094626;28;20195;-72
2023/06/02 10:52:18;;;;;;;13.95;4.93;;;18.60;1.00;;;;;;5094540;28;20242;-71
2023/06/02 10:54:44;;;;;;;8.82;4.78;;;18.90;1.00;;;;;;5094341;28;20599;-72
2023/06/02 10:57:11;;;;;;;6.85;5.18;;;18.40;1.00;;;;;;5094419;28;20662;-73
2023/06/02 10:59:37;;;;;;;8.88;5.40;;;18.40;1.00;;;;;;5094359;28;20591;-71
2023/06/02 11:02:03;;;;;;;10.77;5.53;;;18.40;99.90;;;;;;5094069;28;20237;-71
2023/06/02 11:04:31;;;;;;;9.20;4.85;;;18.80;99.90;;;;;;5094651;28;20178;-71
2023/06/02 11:07:21;;;;;;;7.72;4.68;;;19.10;1.00;;;;;;5095077;28;20726;-71
2023/06/02 11:10:11;;;;;;;11.63;5.03;;;19.00;1.00;;;;;;5094826;28;20164;-70
2023/06/02 11:12:57;;;;;;;7.50;4.63;;;19.40;99.90;;;;;;5094234;28;20259;-72
2023/06/02 11:15:24;;;;;;;8.98;4.55;;;20.30;99.90;;;;;;5083984;28;20176;-72
2023/06/02 11:17:50;;;;;;;12.20;5.10;;;19.80;1.00;;;;;;5093959;28;20172;-72
2023/06/02 11:20:17;;;;;;;10.18;4.60;;;20.50;1.00;;;;;;5095290;28;20164;-71
2023/06/02 11:22:43;;;;;;;10.32;4.80;;;21.00;99.90;;;;;;5094838;28;20176;-72
2023/06/02 11:25:10;;;;;;;9.88;4.20;;;20.60;1.00;;;;;;5094853;28;20175;-71
2023/06/02 11:27:42;;;;;;;9.55;4.50;;;21.00;99.90;;;;;;5094593;28;20294;-72
2023/06/02 11:30:15;;;;;;;9.13;4.63;;;20.40;99.90;;;;;;5103093;28;20171;-73
2023/06/02 11:32:42;;;;;;;9.98;4.60;;;19.50;1.00;;;;;;5114510;28;20164;-72
2023/06/02 11:35:09;;;;;;;10.55;5.07;;;19.80;1.00;;;;;;5078179;28;20349;-69
2023/06/02 11:37:38;;;;;;;10.93;4.82;;;19.20;99.90;;;;;;5074084;28;20177;-70
2023/06/02 11:40:09;;;;;;;6.88;4.03;;;19.30;99.90;;;;;;5073836;28;20176;-72
2023/06/02 11:42:37;;;;;;;11.27;5.15;;;19.80;1.00;;;;;;5083259;28;20179;-71
2023/06/02 11:45:04;;;;;;;13.75;5.18;;;20.20;1.00;;;;;;5093930;28;20185;-70
2023/06/02 11:47:30;;;;;;;24.63;16.58;;;20.40;99.90;;;;;;5093703;28;20218;-72
2023/06/02 11:49:56;;;;;;;24.42;7.13;;;20.40;1.00;;;;;;5094134;28;20160;-71
2023/06/02 11:52:21;;;;;;;11.10;4.47;;;20.10;1.00;;;;;;5094823;28;20526;-72
2023/06/02 11:54:54;;;;;;;9.80;5.10;;;19.00;99.90;;;;;;5094048;28;20168;-72
2023/06/02 11:57:29;;;;;;;10.57;4.82;;;18.70;91.60;;;;;;5084218;28;20638;-72
2023/06/02 12:00:29;;;;;;;13.30;5.40;;;18.80;1.00;;;;;;5072807;28;20164;-72
2023/06/02 12:03:07;;;;;;;31.00;7.25;;;18.80;1.00;;;;;;5050228;28;20432;-73
2023/06/02 12:05:36;;;;;;;13.98;5.50;;;19.10;1.00;;;;;;5034584;28;20173;-73
2023/06/02 12:08:28;;;;;;;13.38;5.90;;;18.80;99.90;;;;;;5051210;28;20308;-73
2023/06/02 12:10:54;;;;;;;17.40;8.68;;;18.70;1.00;;;;;;5047340;28;20181;-73
2023/06/02 12:13:29;;;;;;;16.23;6.13;;;19.00;99.90;;;;;;5051026;28;20177;-73
2023/06/02 12:15:55;;;;;;;11.03;4.90;;;18.80;1.00;;;;;;5051368;28;20165;-73
2023/06/02 12:18:29;;;;;;;9.90;5.00;;;18.80;99.90;;;;;;5051231;28;20199;-73
2023/06/02 12:20:55;;;;;;;20.85;10.90;;;18.20;1.00;;;;;;5050807;28;20177;-73
2023/06/02 12:23:21;;;;;;;11.77;6.60;;;18.70;99.90;;;;;;5034377;28;20242;-73
2023/06/02 12:25:59;;;;;;;14.82;8.85;;;18.60;1.00;;;;;;5051098;28;20215;-73
2023/06/02 12:28:24;;;;;;;14.40;6.25;;;18.90;1.00;;;;;;5051038;28;20279;-74
2023/06/02 12:30:51;;;;;;;14.77;5.97;;;18.80;99.90;;;;;;5051212;28;20265;-73
2023/06/02 12:33:17;;;;;;;16.65;5.35;;;19.00;99.90;;;;;;5050200;28;20231;-73
2023/06/02 12:35:43;;;;;;;13.17;5.10;;;18.50;1.00;;;;;;5050470;28;20182;-73
2023/06/02 12:38:09;;;;;;;12.17;5.47;;;18.00;1.00;;;;;;5052070;28;20189;-73
2023/06/02 12:40:37;;;;;;;9.70;5.30;;;18.50;99.90;;;;;;5072826;28;20164;-74
2023/06/02 12:43:03;;;;;;;10.35;5.38;;;18.90;1.00;;;;;;5072835;28;20173;-73
2023/06/02 12:45:28;;;;;;;8.50;4.90;;;19.20;1.00;;;;;;5073152;28;20538;-73
2023/06/02 12:47:54;;;;;;;11.02;5.22;;;18.60;99.90;;;;;;5072518;28;20215;-73